Metsäpalo Alkaa: 22-05-2018 11:00 Päättyy: 22:59 Varoitus: Metsäpalo Taso: Keltainen info button
suomi:
Metsäpalovaroitus on voimassa.

svenska:
Varning för skogsbrand gäller.

english:
A forest fire warning is in force. 


Webkamera Lisätietoa Webcam


Sadetutka Lisätietoa rain snow radar


Yksityisiä sääasemia lähellä:

Sääasema Ruovesi, Lehtissaari

Sääasema Juupajoki

Sääasema Muurame

Sääasema Jyväskylä

Sääasema Vihtavuori


Löydät sääaseman tiedot myös:

Finland Weather Exchange

European Weather Network

Weather Underground

AWEKAS



Säätiedot lähimmiltä METAR asemilta

   
EFHA - Halli (Fin-Afb), Finland
Etäisyys asemalta: Kaakko 25 km
Päivitetty: 22.05.2018 12:20
Selkeää  
Selkeää  
   Tuuli: Etelä 3.6 m/s
Tuuli: Etelä 3.6 m/s
Lämpötila: 22°C
Kastepiste: 4°C
Kosteus: 31%
Ilmanpaine: 1023 hPa
Näkyvyys: Enemmän kuin 10 km
Pilvitiedot: Selkeää
EFHA 220920Z AUTO 17007KT 120V230 CAVOK 22/04 Q1023
EFJY - Jyvaskyla (Mil/Civ), Finland
Etäisyys asemalta: Koillinen 75 km
Päivitetty: 22.05.2018 12:50
Selkeää  
Selkeää  
   Tuuli: Etelälounas 3.1 m/s
Tuuli: Etelälounas 3.1 m/s
Lämpötila: 21°C
Kastepiste: 4°C
Kosteus: 33%
Ilmanpaine: 1022 hPa
Näkyvyys: Enemmän kuin 10 km
Pilvitiedot: Selkeää
EFJY 220950Z 20006KT 140V250 CAVOK 21/04 Q1022
EFTP - Tampere/Pirkkala, Finland
Etäisyys asemalta: Lounas 81 km
Päivitetty: 22.05.2018 12:50
Selkeää  
Selkeää  
   Tuuli: Eteläkaakko 2.1 m/s
Tuuli: Eteläkaakko 2.1 m/s
Lämpötila: 23°C
Kastepiste: 5°C
Kosteus: 31%
Ilmanpaine: 1022 hPa
Näkyvyys: Enemmän kuin 10 km
Pilvitiedot: Selkeää
EFTP 220950Z 15004KT 010V210 CAVOK 23/05 Q1022
EFSI - Seinajoki-Ilmajoki, Finland
Etäisyys asemalta: Luode 114 km
Päivitetty: 21.05.2018 20:50
Ei ajankohtaista tietoa saatavilla
Selkeää  
Selkeää  
   Tuuli: Kaakko 2.1 m/s
Tuuli: Kaakko 2.1 m/s
Näkyvyys: Enemmän kuin 10 km
Pilvitiedot: Selkeää
EFSI 211750Z AUTO 14004KT CAVOK ///// Q////
EFMI - Mikkeli, Finland
Etäisyys asemalta: Itäkaakko 147 km
Päivitetty: 22.05.2018 12:50
Selkeää  
Selkeää  
   Tuuli: Vaihtelee 2.6 m/s
Tuuli: Vaihtelee 2.6 m/s
Lämpötila: 23°C
Kastepiste: 4°C
Kosteus: 29%
Ilmanpaine: 1023 hPa
Näkyvyys: Enemmän kuin 10 km
Pilvitiedot: Selkeää
EFMI 220950Z AUTO VRB05KT CAVOK 23/04 Q1023
EFPO - Pori (Mil/Civ), Finland
Etäisyys asemalta: Länsilounas 154 km
Päivitetty: 22.05.2018 12:50
Selkeää  
Selkeää  
   Tuuli: Luode 4.1 m/s
Tuuli: Luode 4.1 m/s
Lämpötila: 22°C
Kastepiste: 4°C
Kosteus: 31%
Ilmanpaine: 1021 hPa
Näkyvyys: Enemmän kuin 10 km
Pilvitiedot: Selkeää
EFPO 220950Z AUTO 31008KT CAVOK 22/04 Q1021
EFUT - Utti (Fin-Afb), Finland
Etäisyys asemalta: Kaakko 180 km
Päivitetty: 22.05.2018 12:50
Selkeää  
Selkeää  
   Tuuli: Kaakko 2.6 m/s
Tuuli: Kaakko 2.6 m/s
Lämpötila: 23°C
Kastepiste: 4°C
Kosteus: 29%
Ilmanpaine: 1023 hPa
Näkyvyys: Enemmän kuin 10 km
Pilvitiedot: Selkeää
EFUT 220950Z 13005KT 090V210 CAVOK 23/04 Q1023
EFVA - Vaasa, Finland
Etäisyys asemalta: Luode 180 km
Päivitetty: 22.05.2018 12:50
Selkeää  
Selkeää  
   Tuuli: Lounas 6.7 m/s
Tuuli: Lounas 6.7 m/s
Lämpötila: 22°C
Kastepiste: 5°C
Kosteus: 33%
Ilmanpaine: 1020 hPa
Näkyvyys: Enemmän kuin 10 km
Pilvitiedot: Selkeää
EFVA 220950Z AUTO 22013KT 190V250 CAVOK 22/05 Q1020
EFHK - Helsinki/Vantaa, Finland
Etäisyys asemalta: Etelä 191 km
Päivitetty: 22.05.2018 12:50
Selkeää  
Selkeää  
   Tuuli: Kaakko 4.6 m/s
Tuuli: Kaakko 4.6 m/s
Lämpötila: 23°C
Kastepiste: 6°C
Kosteus: 33%
Ilmanpaine: 1022 hPa
Näkyvyys: Enemmän kuin 10 km
Pilvitiedot: Selkeää
EFHK 220950Z 14009KT 100V180 CAVOK 23/06 Q1022 NOSIG

Alkuperäinen skripti  Saratoga-weather.org Sovitettu myös templatelle  Weerstation Leuven

Laitteet joita käytämme:

Sääasema
Davis VP2

Sääasemaohjelma
Cumulus

Sääaseman palvelin
HP ProBook 6460b

Palveluntarjoaja
Radicenter

Davis VP2

Cumulus

HP ProBook 6460b

Radicenter




Flag Counter Cumulus Top Weather Sites